Time;durP1;ratioP1;P1;durP2;ratioP2;P2;SDS_P1;SDS_P2;PMS_P1;PMS_P2;Temp;Humidity;BMP_temperature;BMP_pressure;BME280_temperature;BME280_humidity;BME280_pressure;Samples;Min_cycle;Max_cycle;Signal;HPM_P1;HPM_P2
2021/11/15 00:01:51;;;;;;;13.43;11.30;;;;;;;9.89;59.76;98588.28;8285993;28;20237;-67
2021/11/15 00:05:55;;;;;;;13.30;11.50;;;;;;;10.10;59.31;98601.44;8286433;28;20238;-67
2021/11/15 00:09:58;;;;;;;13.00;11.23;;;;;;;10.04;59.58;98594.72;8286014;28;20234;-66
2021/11/15 00:14:01;;;;;;;13.97;11.73;;;;;;;10.32;58.59;98604.22;8286264;28;20249;-67
2021/11/15 00:18:05;;;;;;;13.00;11.27;;;;;;;10.18;59.80;98599.44;8286091;28;20240;-67
2021/11/15 00:22:10;;;;;;;12.43;10.90;;;;;;;10.39;58.86;98604.84;8285940;28;20233;-67
2021/11/15 00:26:13;;;;;;;12.37;11.03;;;;;;;10.49;58.51;98593.28;8286070;28;20241;-67
2021/11/15 00:30:16;;;;;;;10.23;9.10;;;;;;;9.83;59.58;98595.41;8285862;28;20238;-66
2021/11/15 00:34:19;;;;;;;10.07;9.07;;;;;;;10.25;58.68;98589.75;8285857;28;20229;-66
2021/11/15 00:38:23;;;;;;;11.90;9.07;;;;;;;10.00;58.75;98600.91;8285755;28;20237;-66
2021/11/15 00:42:26;;;;;;;10.13;8.33;;;;;;;10.17;57.81;98598.59;8285291;28;20233;-66
2021/11/15 00:46:29;;;;;;;9.17;8.20;;;;;;;10.00;58.66;98594.88;8285176;28;20238;-66
2021/11/15 00:50:33;;;;;;;8.47;7.67;;;;;;;9.81;58.86;98590.28;8285169;28;20423;-67
2021/11/15 00:54:37;;;;;;;8.67;7.53;;;;;;;10.04;58.17;98599.91;8285052;28;20240;-66
2021/11/15 00:58:40;;;;;;;7.83;7.03;;;;;;;9.78;59.04;98593.78;8284932;28;20540;-66
2021/11/15 01:02:43;;;;;;;7.70;6.80;;;;;;;9.69;58.98;98601.00;8284817;28;20236;-67
2021/11/15 01:06:46;;;;;;;7.37;6.27;;;;;;;9.44;59.87;98600.88;8284608;28;20241;-67
2021/11/15 01:10:52;;;;;;;6.83;6.13;;;;;;;9.54;59.75;98589.41;8284347;28;20237;-66
2021/11/15 01:14:55;;;;;;;8.10;7.30;;;;;;;9.91;58.31;98594.25;8284246;28;20246;-66
2021/11/15 01:18:58;;;;;;;8.43;7.50;;;;;;;9.72;59.18;98594.00;8284248;28;20238;-67
2021/11/15 01:23:01;;;;;;;8.10;7.30;;;;;;;10.20;58.23;98589.88;8284054;28;20540;-67
2021/11/15 01:27:06;;;;;;;8.63;7.73;;;;;;;10.22;58.42;98585.50;8283432;28;20225;-66
2021/11/15 01:31:09;;;;;;;7.77;6.87;;;;;;;10.12;58.13;98590.13;8283751;28;20238;-67
2021/11/15 01:35:12;;;;;;;8.53;7.63;;;;;;;10.13;58.26;98594.44;8283242;28;20233;-66
2021/11/15 01:39:15;;;;;;;8.50;7.33;;;;;;;10.22;58.34;98602.78;8283713;28;20568;-67
2021/11/15 01:43:19;;;;;;;8.30;7.30;;;;;;;10.18;58.40;98596.84;8284069;28;20301;-66
2021/11/15 01:47:22;;;;;;;8.67;7.43;;;;;;;10.23;57.87;98602.75;8284516;28;20202;-66
2021/11/15 01:51:26;;;;;;;8.03;7.23;;;;;;;10.02;58.49;98601.69;8283359;28;20543;-67
2021/11/15 01:55:29;;;;;;;8.87;7.70;;;;;;;10.13;58.38;98594.44;8283220;28;20241;-66
2021/11/15 01:59:35;;;;;;;7.80;6.93;;;;;;;10.26;58.09;98601.78;8283028;28;20237;-67
2021/11/15 02:03:38;;;;;;;8.67;7.77;;;;;;;10.15;58.54;98599.56;8283276;28;20425;-66
2021/11/15 02:07:41;;;;;;;9.27;7.63;;;;;;;10.38;58.06;98593.66;8283009;28;20248;-66
2021/11/15 02:11:44;;;;;;;10.53;8.17;;;;;;;10.18;58.13;98591.69;8282364;28;20249;-67
2021/11/15 02:15:49;;;;;;;8.40;7.57;;;;;;;10.29;58.30;98575.81;8282346;28;20237;-67
2021/11/15 02:19:52;;;;;;;9.23;7.37;;;;;;;10.31;58.02;98576.63;8282812;28;20237;-67
2021/11/15 02:23:57;;;;;;;8.43;7.60;;;;;;;10.11;58.61;98577.25;8282597;28;20256;-68
2021/11/15 02:28:00;;;;;;;10.90;8.53;;;;;;;9.75;59.24;98572.38;8282564;28;20567;-67
2021/11/15 02:32:03;;;;;;;9.50;8.10;;;;;;;9.98;59.02;98574.22;8282116;28;20251;-66
2021/11/15 02:36:07;;;;;;;9.37;8.37;;;;;;;9.88;59.27;98563.34;8281709;28;20233;-66
2021/11/15 02:40:17;;;;;;;9.57;8.57;;;;;;;10.17;58.30;98569.28;8281948;28;20237;-67
2021/11/15 02:44:20;;;;;;;9.30;8.23;;;;;;;9.68;59.71;98570.88;8282248;28;20233;-66
2021/11/15 02:48:24;;;;;;;9.43;8.20;;;;;;;9.62;60.41;98561.56;8288687;28;20282;-66
2021/11/15 02:52:27;;;;;;;10.20;8.50;;;;;;;9.86;59.36;98556.50;8288549;28;20229;-67
2021/11/15 02:56:31;;;;;;;8.47;7.50;;;;;;;9.93;59.17;98560.59;8288442;28;20638;-66
2021/11/15 03:00:37;;;;;;;8.17;7.37;;;;;;;9.75;59.56;98549.94;8288268;28;20244;-67
2021/11/15 03:04:40;;;;;;;9.93;8.03;;;;;;;10.03;58.94;98554.19;8288413;28;20233;-66
2021/11/15 03:08:44;;;;;;;8.60;7.70;;;;;;;9.79;59.46;98551.53;8288124;28;20244;-67
2021/11/15 03:12:49;;;;;;;9.60;7.97;;;;;;;10.00;59.36;98551.72;8287952;28;20241;-67
2021/11/15 03:16:52;;;;;;;8.03;7.23;;;;;;;9.73;59.55;98556.06;8287867;28;20233;-67
2021/11/15 03:20:58;;;;;;;8.73;7.80;;;;;;;9.74;59.63;98558.56;8287946;28;20425;-66
2021/11/15 03:25:01;;;;;;;9.87;8.03;;;;;;;9.68;60.09;98553.59;8287832;28;20559;-67
2021/11/15 03:29:05;;;;;;;8.63;7.83;;;;;;;9.64;60.47;98554.59;8287225;28;20234;-67
2021/11/15 03:33:09;;;;;;;9.77;8.03;;;;;;;9.76;59.64;98556.78;8287239;28;20244;-67
2021/11/15 03:37:13;;;;;;;9.10;8.00;;;;;;;9.95;59.44;98557.03;8287280;28;20517;-67
2021/11/15 03:41:16;;;;;;;9.83;8.47;;;;;;;9.68;60.14;98558.78;8287444;28;20245;-67
2021/11/15 03:45:20;;;;;;;9.80;8.33;;;;;;;10.05;59.13;98561.91;8287213;28;20241;-66
2021/11/15 03:49:23;;;;;;;10.10;8.40;;;;;;;10.27;58.64;98559.47;8287116;28;20253;-67
2021/11/15 03:53:29;;;;;;;11.13;9.90;;;;;;;9.92;59.62;98561.50;8286837;28;20238;-66
2021/11/15 03:57:33;;;;;;;12.60;10.30;;;;;;;9.88;59.61;98565.91;8286635;28;20554;-67
2021/11/15 04:01:38;;;;;;;14.00;11.17;;;;;;;9.63;60.09;98549.47;8286648;28;20244;-66
2021/11/15 04:05:45;;;;;;;12.80;10.63;;;;;;;10.02;59.02;98554.28;8286421;28;20419;-66
2021/11/15 04:09:47;;;;;;;14.57;12.03;;;;;;;9.66;59.97;98547.63;8285946;28;20548;-66
2021/11/15 04:13:54;;;;;;;14.20;11.83;;;;;;;10.10;58.87;98547.09;8286145;28;20237;-66
2021/11/15 04:17:59;;;;;;;13.70;11.23;;;;;;;10.10;58.81;98547.94;8286132;28;20239;-66
2021/11/15 04:22:02;;;;;;;15.27;13.23;;;;;;;10.04;59.09;98549.91;8285915;28;20237;-66
2021/11/15 04:26:05;;;;;;;16.17;12.97;;;;;;;9.96;59.60;98548.41;8285507;28;20230;-66
2021/11/15 04:30:12;;;;;;;17.83;15.30;;;;;;;10.14;59.15;98552.09;8285743;28;20238;-67
2021/11/15 04:34:16;;;;;;;20.67;16.53;;;;;;;9.89;59.57;98559.84;8285575;28;20237;-67
2021/11/15 04:38:19;;;;;;;21.30;17.73;;;;;;;10.14;58.93;98546.94;8285707;28;20245;-66
2021/11/15 04:42:22;;;;;;;24.07;18.90;;;;;;;10.11;58.95;98541.88;8285586;28;20440;-66
2021/11/15 04:46:25;;;;;;;25.93;20.87;;;;;;;10.00;59.42;98543.97;8285271;28;20237;-66
2021/11/15 04:50:30;;;;;;;25.50;21.53;;;;;;;9.98;59.31;98546.59;8285501;28;20337;-66
2021/11/15 04:54:33;;;;;;;28.43;21.97;;;;;;;10.20;58.92;98539.88;8285344;28;20233;-68
2021/11/15 04:58:36;;;;;;;28.17;22.67;;;;;;;10.29;58.54;98536.97;8292417;28;20536;-67
2021/11/15 05:02:39;;;;;;;29.80;23.33;;;;;;;10.33;58.15;98538.59;8300187;28;20257;-68
2021/11/15 05:06:44;;;;;;;27.83;23.30;;;;;;;10.34;57.70;98530.78;8292338;28;20229;-66
2021/11/15 05:10:47;;;;;;;28.83;23.30;;;;;;;10.09;58.49;98535.03;8283354;28;20588;-68
2021/11/15 05:14:50;;;;;;;27.33;22.03;;;;;;;10.00;58.34;98532.78;8284460;28;20539;-67
2021/11/15 05:18:53;;;;;;;29.40;23.43;;;;;;;9.74;59.26;98535.28;8294406;28;20236;-67
2021/11/15 05:22:58;;;;;;;33.07;25.67;;;;;;;9.60;60.26;98532.31;8312383;28;20248;-67
2021/11/15 05:27:00;;;;;;;34.10;26.03;;;;;;;9.47;60.40;98529.25;8316864;28;20419;-67
2021/11/15 05:31:03;;;;;;;32.07;25.57;;;;;;;9.64;60.13;98526.16;8316665;28;20233;-67
2021/11/15 05:35:08;;;;;;;34.47;26.47;;;;;;;9.66;59.87;98528.69;8317087;28;20539;-67
2021/11/15 05:39:12;;;;;;;33.87;27.03;;;;;;;9.57;60.38;98528.06;8316336;28;20232;-67
2021/11/15 05:43:15;;;;;;;32.03;25.77;;;;;;;9.59;60.54;98533.19;8316033;28;20233;-67
2021/11/15 05:47:18;;;;;;;30.13;25.83;;;;;;;9.38;60.86;98524.38;8291405;28;20233;-67
2021/11/15 05:51:21;;;;;;;34.37;25.47;;;;;;;9.30;61.32;98529.78;8283045;28;20237;-67
2021/11/15 05:55:26;;;;;;;32.27;26.30;;;;;;;9.35;61.31;98533.06;8283380;28;20229;-67
2021/11/15 05:59:29;;;;;;;33.70;26.27;;;;;;;9.34;60.87;98546.03;8285717;28;20252;-67
2021/11/15 06:03:31;;;;;;;35.03;26.37;;;;;;;9.32;61.40;98548.66;8309302;28;20233;-67
2021/11/15 06:07:35;;;;;;;37.33;29.07;;;;;;;9.60;60.94;98547.84;8314803;28;20244;-67
2021/11/15 06:11:39;;;;;;;34.03;26.90;;;;;;;9.80;59.86;98557.53;8312036;28;20236;-67
2021/11/15 06:15:42;;;;;;;35.17;27.60;;;;;;;9.26;61.54;98554.03;8314953;28;20248;-67
2021/11/15 06:19:45;;;;;;;32.87;27.27;;;;;;;9.65;60.47;98564.03;8315248;28;20236;-67
2021/11/15 06:23:48;;;;;;;35.53;26.57;;;;;;;9.47;61.13;98570.63;8315323;28;20239;-68
2021/11/15 06:27:53;;;;;;;36.13;26.10;;;;;;;9.53;60.43;98572.19;8314939;28;20240;-66
2021/11/15 06:31:56;;;;;;;31.83;26.50;;;;;;;9.61;60.64;98580.53;8314951;28;20603;-67
2021/11/15 06:35:59;;;;;;;36.57;27.03;;;;;;;9.22;61.66;98582.59;8315251;28;20237;-67
2021/11/15 06:40:03;;;;;;;35.77;27.87;;;;;;;9.68;60.43;98579.47;8299451;28;20229;-67
2021/11/15 06:44:08;;;;;;;36.83;28.07;;;;;;;9.38;61.18;98589.81;8281876;28;20229;-67
2021/11/15 06:48:11;;;;;;;34.03;26.87;;;;;;;9.55;60.91;98599.66;8281768;28;20233;-67
2021/11/15 06:52:14;;;;;;;30.20;25.50;;;;;;;9.38;61.18;98600.16;8282421;28;20237;-67
2021/11/15 06:56:17;;;;;;;31.87;25.53;;;;;;;9.55;60.82;98589.31;8282248;28;20566;-67
2021/11/15 07:00:23;;;;;;;32.93;25.90;;;;;;;9.35;61.45;98592.53;8281958;28;20434;-67
2021/11/15 07:04:26;;;;;;;33.20;24.73;;;;;;;9.32;62.01;98591.75;8281916;28;20554;-67
2021/11/15 07:08:29;;;;;;;35.03;26.50;;;;;;;9.51;61.09;98602.41;8282003;28;20559;-67
2021/11/15 07:12:32;;;;;;;32.67;25.70;;;;;;;9.28;61.33;98603.94;8281302;28;20249;-67
2021/11/15 07:16:36;;;;;;;33.43;25.17;;;;;;;9.70;60.52;98613.88;8281209;28;20244;-66
2021/11/15 07:20:39;;;;;;;35.03;25.47;;;;;;;9.61;60.10;98606.41;8281628;28;20233;-66
2021/11/15 07:24:42;;;;;;;29.63;24.33;;;;;;;9.71;60.50;98606.97;8281727;28;20233;-67
2021/11/15 07:28:45;;;;;;;36.97;25.90;;;;;;;9.67;59.99;98603.66;8281579;28;20238;-67
2021/11/15 07:32:51;;;;;;;34.10;25.47;;;;;;;10.11;59.33;98601.41;8285528;28;20329;-67
2021/11/15 07:36:54;;;;;;;32.53;25.93;;;;;;;9.87;60.35;98604.78;8287425;28;20237;-67
2021/11/15 07:40:57;;;;;;;34.70;25.27;;;;;;;9.56;60.54;98606.56;8287277;28;20237;-67
2021/11/15 07:45:00;;;;;;;31.17;25.17;;;;;;;9.68;60.03;98604.50;8286816;28;20229;-66
2021/11/15 07:49:04;;;;;;;30.83;25.07;;;;;;;9.66;60.29;98604.53;8286496;28;20428;-67
2021/11/15 07:53:07;;;;;;;32.03;25.23;;;;;;;9.51;60.46;98600.66;8286695;28;20248;-67
2021/11/15 07:57:10;;;;;;;29.33;24.47;;;;;;;9.79;60.31;98605.00;8286825;28;20233;-67
2021/11/15 08:01:13;;;;;;;30.87;24.67;;;;;;;9.95;59.45;98595.00;8286653;28;20552;-66
2021/11/15 08:05:19;;;;;;;30.77;24.60;;;;;;;9.73;60.41;98603.44;8286724;28;20540;-67
2021/11/15 08:09:22;;;;;;;29.60;23.90;;;;;;;9.87;59.75;98592.66;8286228;28;20237;-67
2021/11/15 08:13:30;;;;;;;31.17;24.93;;;;;;;9.83;59.99;98579.91;8286011;28;20241;-68
2021/11/15 08:17:32;;;;;;;31.07;24.10;;;;;;;9.63;60.42;98586.50;8286345;28;20430;-67
2021/11/15 08:21:37;;;;;;;32.93;24.40;;;;;;;9.65;59.95;98582.13;8286097;28;20237;-67
2021/11/15 08:26:19;;;;;;;30.23;24.77;;;;;;;9.62;60.62;98586.59;8286237;28;20272;-67
2021/11/15 08:30:22;;;;;;;30.07;24.07;;;;;;;9.56;60.64;98582.44;8283468;28;20229;-67
2021/11/15 08:34:25;;;;;;;31.43;23.60;;;;;;;9.53;60.11;98590.28;8285820;28;20236;-66
2021/11/15 08:38:51;;;;;;;27.90;23.47;;;;;;;9.63;59.83;98571.00;8285724;28;20229;-67
2021/11/15 08:42:54;;;;;;;29.30;23.60;;;;;;;9.33;60.29;98578.81;8285481;28;20554;-67
2021/11/15 08:46:58;;;;;;;28.07;22.53;;;;;;;9.40;60.19;98582.03;8284934;28;20233;-67
2021/11/15 08:51:04;;;;;;;31.80;23.50;;;;;;;9.78;59.81;98580.03;8284865;28;20237;-67
2021/11/15 08:55:09;;;;;;;27.40;22.30;;;;;;;9.70;60.04;98575.09;8284500;28;20225;-69
2021/11/15 08:59:12;;;;;;;28.33;22.80;;;;;;;9.52;59.81;98586.84;8284849;28;20237;-67
2021/11/15 09:03:16;;;;;;;28.63;22.20;;;;;;;9.81;59.34;98584.28;8284676;28;20247;-69
2021/11/15 09:07:19;;;;;;;28.40;21.60;;;;;;;9.79;59.53;98589.50;8284844;28;20420;-67
2021/11/15 09:11:24;;;;;;;25.93;20.87;;;;;;;9.51;59.99;98590.31;8284504;28;20420;-67
2021/11/15 09:15:27;;;;;;;25.90;21.27;;;;;;;9.44;60.66;98582.78;8284333;28;20237;-67
2021/11/15 09:19:30;;;;;;;25.83;21.40;;;;;;;9.62;59.64;98589.16;8284194;28;20245;-67
2021/11/15 09:23:33;;;;;;;27.37;21.43;;;;;;;9.67;59.87;98580.38;8284182;28;20237;-67
2021/11/15 09:27:37;;;;;;;26.30;20.77;;;;;;;9.87;59.13;98589.25;8283991;28;20241;-67
2021/11/15 09:31:41;;;;;;;24.73;20.63;;;;;;;9.97;59.02;98601.81;8284113;28;20248;-67
2021/11/15 09:35:48;;;;;;;30.37;20.87;;;;;;;9.92;58.51;98587.38;8284107;28;20299;-67
2021/11/15 09:39:55;;;;;;;24.63;19.30;;;;;;;10.36;58.14;98592.88;8283746;28;20299;-67
2021/11/15 09:44:00;;;;;;;25.47;20.47;;;;;;;10.29;57.81;98589.59;8283752;28;20273;-67
2021/11/15 09:48:05;;;;;;;24.20;19.03;;;;;;;9.76;58.79;98592.16;8283161;28;20325;-67
2021/11/15 09:52:09;;;;;;;24.63;19.33;;;;;;;10.00;58.12;98590.53;8283057;28;20257;-67
2021/11/15 09:56:14;;;;;;;24.77;17.90;;;;;;;10.41;60.86;98595.28;8282711;28;20236;-69
2021/11/15 10:00:21;;;;;;;19.73;17.03;;;;;;;10.52;59.12;98591.44;8281689;28;20226;-69
2021/11/15 10:04:25;;;;;;;25.43;18.57;;;;;;;10.61;56.88;98603.22;8282699;28;20240;-69
2021/11/15 10:08:42;;;;;;;22.23;17.83;;;;;;;10.08;57.94;98601.50;8283246;28;21124;-69
2021/11/15 10:13:02;;;;;;;23.50;18.13;;;;;;;9.92;58.38;98595.97;8282871;28;20256;-68
2021/11/15 10:17:06;;;;;;;24.20;18.17;;;;;;;10.15;57.72;98594.38;8282550;28;20233;-68
2021/11/15 10:21:11;;;;;;;23.67;18.13;;;;;;;10.46;57.58;98596.81;8282574;28;20233;-67
2021/11/15 10:25:22;;;;;;;23.77;18.30;;;;;;;9.86;58.86;98592.72;8282413;28;20237;-67
2021/11/15 10:29:30;;;;;;;21.17;17.60;;;;;;;9.92;58.66;98585.63;8282565;28;20256;-67
2021/11/15 10:33:40;;;;;;;22.23;18.00;;;;;;;10.20;58.48;98592.47;8282441;28;20238;-66
2021/11/15 10:37:44;;;;;;;20.93;16.90;;;;;;;10.20;57.94;98589.03;8282342;28;20233;-67
2021/11/15 10:42:07;;;;;;;19.80;16.53;;;;;;;10.00;58.25;98582.78;8282375;28;20237;-67
2021/11/15 10:46:10;;;;;;;21.10;16.80;;;;;;;10.08;58.56;98593.72;8281488;28;20229;-61
2021/11/15 10:50:22;;;;;;;22.73;16.47;;;;;;;10.16;57.53;98581.38;8282097;28;20417;-61
2021/11/15 10:54:43;;;;;;;19.93;15.90;;;;;;;10.18;57.76;98565.78;8282161;28;20242;-63
2021/11/15 10:58:49;;;;;;;22.27;16.93;;;;;;;10.28;57.60;98574.09;8282339;28;20240;-61
2021/11/15 11:02:54;;;;;;;19.97;16.60;;;;;;;10.12;58.26;98572.03;8282134;28;20236;-64
2021/11/15 11:07:03;;;;;;;22.63;17.27;;;;;;;10.18;58.33;98569.25;8284568;28;20241;-61
2021/11/15 11:11:09;;;;;;;21.70;15.40;;;;;;;10.11;58.52;98567.75;8288169;28;20240;-62
2021/11/15 11:15:26;;;;;;;19.77;15.57;;;;;;;10.11;57.95;98564.31;8287697;28;20241;-61
2021/11/15 11:19:32;;;;;;;17.77;15.20;;;;;;;10.37;57.98;98566.06;8287680;28;20237;-61
2021/11/15 11:24:07;;;;;;;20.43;16.23;;;;;;;10.09;58.30;98558.34;8288169;28;20237;-61
2021/11/15 11:28:28;;;;;;;19.70;14.93;;;;;;;10.34;58.29;98551.50;8287613;28;20399;-62
2021/11/15 11:32:31;;;;;;;18.30;14.50;;;;;;;10.51;57.41;98539.72;8287513;28;20237;-62
2021/11/15 11:36:34;;;;;;;19.83;15.53;;;;;;;10.44;58.04;98548.59;8287212;28;20244;-61
2021/11/15 11:40:40;;;;;;;20.50;15.40;;;;;;;10.23;57.76;98539.78;8287674;28;20233;-62
2021/11/15 11:44:43;;;;;;;21.43;15.53;;;;;;;10.22;58.18;98533.72;8287659;28;20236;-62
2021/11/15 11:48:48;;;;;;;19.67;16.07;;;;;;;10.67;57.42;98530.47;8286876;28;20421;-61
2021/11/15 11:53:03;;;;;;;18.37;15.37;;;;;;;10.59;57.17;98529.91;8286941;28;20238;-62
2021/11/15 11:57:13;;;;;;;18.53;14.80;;;;;;;10.69;56.68;98527.84;8286302;28;20236;-64
2021/11/15 12:01:18;;;;;;;24.17;16.47;;;;;;;10.36;57.99;98525.56;8286584;28;20233;-62
2021/11/15 12:05:29;;;;;;;16.87;14.93;;;;;;;10.43;57.61;98518.41;8286707;28;20237;-63
2021/11/15 12:09:46;;;;;;;19.60;15.47;;;;;;;10.59;57.20;98521.31;8285952;28;20245;-62
2021/11/15 12:13:51;;;;;;;20.37;15.00;;;;;;;10.65;57.61;98518.50;8286054;28;20261;-62
2021/11/15 12:18:05;;;;;;;20.77;15.40;;;;;;;10.46;57.51;98518.31;8285899;28;20240;-62
2021/11/15 12:22:10;;;;;;;18.57;14.77;;;;;;;10.61;57.69;98516.91;8285445;28;20230;-63
2021/11/15 12:26:15;;;;;;;15.93;13.87;;;;;;;10.46;58.04;98515.72;8285853;28;20536;-63
2021/11/15 12:30:21;;;;;;;18.43;15.23;;;;;;;10.67;57.14;98504.59;8285604;28;20449;-63
2021/11/15 12:34:27;;;;;;;19.37;16.03;;;;;;;10.64;57.20;98511.63;8285548;28;20244;-62
2021/11/15 12:38:44;;;;;;;18.77;15.43;;;;;;;10.44;57.33;98504.56;8285280;28;20233;-62
2021/11/15 12:42:47;;;;;;;19.37;15.10;;;;;;;10.96;56.43;98493.13;8284745;28;20241;-63
2021/11/15 12:46:58;;;;;;;18.80;14.83;;;;;;;10.82;57.09;98492.81;8285455;28;20233;-62
2021/11/15 12:51:10;;;;;;;19.87;15.47;;;;;;;10.72;56.70;98491.47;8285351;28;20241;-62
2021/11/15 12:55:16;;;;;;;18.73;15.17;;;;;;;11.04;56.32;98486.81;8284548;28;20551;-63
2021/11/15 12:59:19;;;;;;;19.00;14.77;;;;;;;10.98;56.63;98487.91;8284757;28;20287;-62
2021/11/15 13:03:25;;;;;;;18.83;15.50;;;;;;;10.88;56.84;98482.22;8285079;28;20244;-66
2021/11/15 13:07:28;;;;;;;19.53;14.77;;;;;;;11.02;56.88;98486.03;8284707;28;20225;-66
2021/11/15 13:11:31;;;;;;;21.17;15.30;;;;;;;10.81;56.84;98485.09;8284315;28;20238;-66
2021/11/15 13:15:34;;;;;;;21.77;16.33;;;;;;;11.14;56.90;98483.00;8283953;28;20248;-66
2021/11/15 13:19:39;;;;;;;20.90;15.83;;;;;;;11.20;55.91;98479.31;8284271;28;20238;-66
2021/11/15 13:23:43;;;;;;;19.03;14.93;;;;;;;10.99;57.05;98481.81;8284181;28;20248;-66
2021/11/15 13:27:46;;;;;;;20.20;15.70;;;;;;;10.89;56.77;98483.94;8283415;28;20237;-66
2021/11/15 13:31:50;;;;;;;19.40;15.47;;;;;;;11.25;56.81;98473.06;8283639;28;20244;-66
2021/11/15 13:35:55;;;;;;;19.40;15.80;;;;;;;11.23;56.92;98474.88;8283690;28;20241;-65
2021/11/15 13:40:00;;;;;;;19.93;16.30;;;;;;;11.22;56.07;98464.56;8305416;28;20233;-66
2021/11/15 13:44:04;;;;;;;18.40;15.27;;;;;;;11.39;56.24;98462.13;8316056;28;20232;-66
2021/11/15 13:48:07;;;;;;;22.37;17.70;;;;;;;11.21;56.40;98463.69;8284576;28;20234;-67
2021/11/15 13:52:11;;;;;;;20.03;16.37;;;;;;;11.32;56.54;98465.88;8301940;28;20240;-67
2021/11/15 13:56:16;;;;;;;20.47;16.30;;;;;;;11.27;56.83;98462.59;8312099;28;20229;-63
2021/11/15 14:00:19;;;;;;;20.53;16.93;;;;;;;11.01;57.20;98466.22;8284793;28;20240;-64
2021/11/15 14:04:22;;;;;;;21.63;17.03;;;;;;;11.11;57.00;98465.78;8285585;28;20241;-63
2021/11/15 14:08:27;;;;;;;22.00;17.00;;;;;;;10.92;57.51;98470.00;8282841;28;20230;-63
2021/11/15 14:12:29;;;;;;;23.97;17.57;;;;;;;11.18;57.04;98469.00;8282390;28;20237;-63
2021/11/15 14:16:32;;;;;;;21.07;17.10;;;;;;;11.37;56.62;98469.13;8282310;28;20276;-63
2021/11/15 14:20:36;;;;;;;19.77;16.13;;;;;;;11.06;57.01;98465.16;8298209;28;20292;-62
2021/11/15 14:24:41;;;;;;;21.93;17.43;;;;;;;11.10;57.00;98477.09;8287209;28;20240;-62
2021/11/15 14:28:44;;;;;;;22.60;18.57;;;;;;;11.23;56.46;98471.41;8296369;28;20224;-64
2021/11/15 14:32:47;;;;;;;25.43;19.27;;;;;;;11.20;57.17;98476.72;8293523;28;20290;-62
2021/11/15 14:36:50;;;;;;;22.83;18.63;;;;;;;11.13;57.49;98473.53;8294551;28;20413;-65
2021/11/15 14:40:54;;;;;;;25.67;20.23;;;;;;;11.19;57.16;98472.44;8297829;28;20412;-65
2021/11/15 14:44:58;;;;;;;26.23;20.97;;;;;;;11.23;57.15;98469.69;8305755;28;20236;-66
2021/11/15 14:49:01;;;;;;;23.50;18.40;;;;;;;10.85;57.28;98469.41;8313903;28;20539;-65
2021/11/15 14:53:04;;;;;;;20.87;17.47;;;;;;;10.82;58.01;98473.84;8308730;28;20343;-66
2021/11/15 14:57:09;;;;;;;29.23;21.87;;;;;;;10.70;58.31;98477.72;8319523;28;20275;-65
2021/11/15 15:01:12;;;;;;;39.07;26.53;;;;;;;11.09;57.30;98474.53;8321637;28;20270;-65
2021/11/15 15:05:16;;;;;;;21.53;16.50;;;;;;;11.12;58.04;98471.84;8324784;28;20295;-65
2021/11/15 15:09:20;;;;;;;24.10;17.90;;;;;;;11.14;57.56;98476.06;8324476;28;20244;-65
2021/11/15 15:13:26;;;;;;;21.33;17.67;;;;;;;11.08;57.21;98478.03;8325003;28;20248;-65
2021/11/15 15:17:29;;;;;;;21.70;17.07;;;;;;;11.09;57.39;98488.34;8312221;28;20234;-64
2021/11/15 15:21:32;;;;;;;23.00;18.37;;;;;;;11.16;57.56;98476.00;8292225;28;20240;-65
2021/11/15 15:25:35;;;;;;;22.87;17.83;;;;;;;10.93;57.34;98482.91;8292306;28;20236;-65
2021/11/15 15:29:44;;;;;;;22.17;17.20;;;;;;;11.21;57.18;98481.00;8305768;28;20234;-66
2021/11/15 15:33:48;;;;;;;24.23;19.77;;;;;;;11.14;57.11;98470.88;8295466;28;20228;-65
2021/11/15 15:37:51;;;;;;;23.33;19.37;;;;;;;11.06;57.06;98474.66;8307457;28;20425;-65
2021/11/15 15:41:56;;;;;;;22.80;18.00;;;;;;;11.09;57.53;98479.72;8306438;28;20225;-65
2021/11/15 15:46:00;;;;;;;26.90;20.23;;;;;;;11.05;57.54;98483.34;8302862;28;20540;-66
2021/11/15 15:50:03;;;;;;;24.90;18.47;;;;;;;10.99;58.02;98493.94;8308602;28;20416;-64
2021/11/15 15:54:06;;;;;;;25.43;17.87;;;;;;;11.10;57.26;98490.03;8318980;28;20485;-62
2021/11/15 15:58:09;;;;;;;24.20;18.63;;;;;;;10.80;57.73;98486.00;8319349;28;20259;-62
2021/11/15 16:02:14;;;;;;;23.13;18.67;;;;;;;10.79;57.32;98492.91;8319022;28;20244;-61
2021/11/15 16:06:32;;;;;;;29.43;19.23;;;;;;;10.68;57.88;98489.88;8286811;28;20248;-63
2021/11/15 16:10:59;;;;;;;24.03;18.67;;;;;;;10.79;57.52;98489.50;8285608;28;20237;-62
2021/11/15 16:19:41;;;;;;;24.77;17.40;;;;;;;10.88;57.40;98479.63;8251439;28;20233;-62
2021/11/15 16:23:44;;;;;;;21.77;17.10;;;;;;;10.83;57.72;98478.09;8285706;28;20244;-61
2021/11/15 16:27:47;;;;;;;28.13;19.07;;;;;;;10.85;57.75;98479.75;8285955;28;20225;-61
2021/11/15 16:31:50;;;;;;;24.17;18.30;;;;;;;10.90;57.08;98485.59;8285625;28;20237;-61
2021/11/15 16:35:54;;;;;;;26.10;19.47;;;;;;;10.48;57.64;98499.22;8285568;28;20247;-61
2021/11/15 16:39:59;;;;;;;25.17;18.53;;;;;;;10.70;57.59;98493.25;8283697;28;20225;-61
2021/11/15 16:44:04;;;;;;;23.03;18.43;;;;;;;10.94;56.95;98488.91;8262881;28;20287;-62
2021/11/15 16:48:08;;;;;;;24.10;18.30;;;;;;;10.82;57.37;98485.03;8281135;28;20236;-62
2021/11/15 16:52:15;;;;;;;25.83;19.20;;;;;;;10.62;57.17;98484.94;8285377;28;20276;-62
2021/11/15 16:56:22;;;;;;;25.70;19.23;;;;;;;10.84;57.40;98485.00;8283972;28;20252;-62
2021/11/15 17:00:26;;;;;;;27.37;20.30;;;;;;;10.60;57.59;98484.13;8284897;28;20233;-62
2021/11/15 17:04:30;;;;;;;24.60;19.73;;;;;;;10.29;58.36;98485.19;8283531;28;20237;-61
2021/11/15 17:08:35;;;;;;;25.63;19.87;;;;;;;10.62;57.64;98484.94;8288939;28;20536;-62
2021/11/15 17:12:39;;;;;;;25.37;20.50;;;;;;;10.30;57.97;98492.06;8284373;28;20272;-62
2021/11/15 17:16:42;;;;;;;28.00;20.23;;;;;;;10.03;58.98;98491.25;8284334;28;20244;-62
2021/11/15 17:20:47;;;;;;;27.77;21.30;;;;;;;10.65;57.38;98497.78;8284425;28;20410;-61
2021/11/15 17:25:09;;;;;;;25.60;19.77;;;;;;;10.36;58.25;98495.31;8284092;28;20524;-62
2021/11/15 17:29:13;;;;;;;26.10;20.20;;;;;;;10.45;57.59;98490.72;8283841;28;20244;-63
2021/11/15 17:33:16;;;;;;;30.87;21.63;;;;;;;10.34;57.92;98491.94;8283729;28;20240;-63
2021/11/15 17:37:18;;;;;;;28.60;21.63;;;;;;;10.35;58.28;98491.03;8283816;28;20233;-62
2021/11/15 17:41:23;;;;;;;29.67;21.50;;;;;;;10.17;58.33;98492.50;8283656;28;20300;-62
2021/11/15 17:45:31;;;;;;;29.63;21.17;;;;;;;10.38;58.22;98503.03;8283280;28;20253;-61
2021/11/15 17:49:38;;;;;;;27.47;20.73;;;;;;;10.36;57.65;98504.84;8283338;28;20234;-62
2021/11/15 17:53:52;;;;;;;31.43;22.27;;;;;;;10.40;57.62;98503.81;8283822;28;20430;-62
2021/11/15 17:58:02;;;;;;;28.67;21.53;;;;;;;10.10;59.08;98495.34;8283436;28;20323;-62
2021/11/15 18:02:05;;;;;;;32.20;23.70;;;;;;;10.20;58.50;98498.44;8282468;28;20252;-62
2021/11/15 18:06:12;;;;;;;31.87;23.53;;;;;;;10.51;57.77;98491.34;8282775;28;20237;-63
2021/11/15 18:10:15;;;;;;;30.30;23.03;;;;;;;10.24;58.06;98484.50;8282937;28;20556;-62
2021/11/15 18:14:24;;;;;;;31.20;22.13;;;;;;;10.68;57.70;98484.69;8282411;28;20489;-63
2021/11/15 18:18:32;;;;;;;28.87;22.07;;;;;;;10.67;57.59;98489.03;8282523;28;20231;-63
2021/11/15 18:22:36;;;;;;;29.33;20.73;;;;;;;10.76;57.26;98487.88;8282525;28;20240;-62
2021/11/15 18:26:39;;;;;;;33.93;23.50;;;;;;;10.74;56.90;98489.69;8282601;28;20238;-62
2021/11/15 18:30:44;;;;;;;37.87;24.70;;;;;;;10.52;57.72;98487.00;8282469;28;20233;-62
2021/11/15 18:34:47;;;;;;;48.63;32.50;;;;;;;10.20;58.23;98494.13;8282380;28;20248;-62
2021/11/15 18:38:50;;;;;;;41.70;30.17;;;;;;;10.20;58.38;98493.28;8282508;28;20243;-62
2021/11/15 18:42:53;;;;;;;41.73;29.43;;;;;;;10.43;57.75;98497.69;8282271;28;20239;-62
2021/11/15 18:46:58;;;;;;;39.20;18.93;;;;;;;12.58;66.96;98502.19;8281361;28;20233;-60
2021/11/15 18:51:01;;;;;;;30.57;22.03;;;;;;;13.34;55.99;98491.84;8281699;28;20237;-66
2021/11/15 18:55:05;;;;;;;38.17;25.77;;;;;;;11.82;53.21;98496.72;8281773;28;20245;-67
2021/11/15 18:59:08;;;;;;;35.23;26.13;;;;;;;11.09;55.44;98497.88;8282332;28;20225;-64